首页
METAR-TAF:

METAR-TAF

机场 :

曼谷, 泰国

廊曼国际机场

纬度: 13-54-45N, 经度: 100-36-24E, 海拔: 4米

当前天气观测

该预报发布于11分钟前的00:00 UTC
风速3节,风向东转东北
温度 25°C
湿度 94%
气压 1012 hPa
能見度: 5000
少量云层高于2000英尺
轻雾

METAR: VTBD 250000Z 07003KT 5000 BR FEW020 25/24 Q1012 NOSIG

时间: 07:11 (00:11 UTC)

预报

该预报发布于1小时和11分钟前的23:00 UTC
预报有效从25日的 00点(UTC)到 26日的 06点(UTC)
风速节,风向
能見度: 7000
少量云层高于2000英尺
成为
从 25日的 02点(UTC)到 25日的 04点(UTC)
风速5节,风向东北
能见度10公里或以上
成为
从 25日的 08点(UTC)到 25日的 10点(UTC)
风速5节,风向南转西南
成为
从 25日的 14点(UTC)到 25日的 16点(UTC)
风速5节,风向北转西北
能見度: 8000
成为
从 25日的 20点(UTC)到 25日的 22点(UTC)
风速5节,风向东转东北
能見度: 5000
轻雾

TAF: VTBD 242300Z 2500/2606 00000KT 7000 FEW020 BECMG 2502/2504 04005KT 9999 BECMG 2508/2510 20005KT BECMG 2514/2516 34005KT 8000 BECMG 2520/2522 07005KT 5000 BR

超过4000个机场的气象观测和天气预报(METAR&TAF报告)。

可查询的气象台以黄色和红色小点在地图上表示。

将鼠标移到小点上方,可查看气象台名称。

然后点击查看天气观测和预报。

如需切换地图:点击带黑十字的绿色按钮放大地图;点击带横线的绿色按钮缩小地图;或者点击绿色箭头查看邻近地区的地图。


METAR-TAF: